Time;durP1;ratioP1;P1;durP2;ratioP2;P2;SDS_P1;SDS_P2;PMS_P1;PMS_P2;Temp;Humidity;BMP_temperature;BMP_pressure;BME280_temperature;BME280_humidity;BME280_pressure;Samples;Min_cycle;Max_cycle;Signal;HPM_P1;HPM_P2
2021/05/13 00:00:09;;;;;;;16.50;14.82;;;11.50;99.90;;;;;;5093275;28;20265;-40
2021/05/13 00:02:37;;;;;;;17.20;15.50;;;11.50;99.90;;;;;;5093238;28;20658;-41
2021/05/13 00:05:06;;;;;;;17.65;15.43;;;11.50;99.90;;;;;;5093135;28;20663;-41
2021/05/13 00:07:33;;;;;;;17.60;15.57;;;11.40;99.90;;;;;;5093020;28;20338;-41
2021/05/13 00:10:01;;;;;;;16.48;14.88;;;11.40;99.90;;;;;;5093301;28;20241;-41
2021/05/13 00:12:39;;;;;;;17.85;16.15;;;11.40;99.90;;;;;;5093125;28;20286;-41
2021/05/13 00:15:13;;;;;;;15.68;14.20;;;11.40;99.90;;;;;;5093086;28;20301;-41
2021/05/13 00:17:41;;;;;;;18.23;16.45;;;11.40;99.90;;;;;;5092882;28;20207;-41
2021/05/13 00:20:12;;;;;;;18.02;16.13;;;11.40;99.90;;;;;;5093009;28;20235;-41
2021/05/13 00:22:40;;;;;;;17.50;15.60;;;11.40;99.90;;;;;;5092740;28;20670;-41
2021/05/13 00:25:09;;;;;;;18.00;16.10;;;11.30;99.90;;;;;;5092698;28;20231;-41
2021/05/13 00:27:36;;;;;;;18.90;17.05;;;11.30;99.90;;;;;;5092745;28;20211;-41
2021/05/13 00:30:05;;;;;;;18.23;16.25;;;11.30;99.90;;;;;;5092642;28;20199;-40
2021/05/13 00:32:36;;;;;;;17.40;15.80;;;11.30;99.90;;;;;;5092696;28;20249;-41
2021/05/13 00:35:04;;;;;;;18.42;16.63;;;11.30;99.90;;;;;;5092650;28;20329;-41
2021/05/13 00:37:32;;;;;;;17.92;16.10;;;11.30;99.90;;;;;;5092561;28;20237;-41
2021/05/13 00:39:59;;;;;;;17.45;15.75;;;11.30;99.90;;;;;;5092591;28;20226;-41
2021/05/13 00:42:27;;;;;;;17.52;15.73;;;11.30;99.90;;;;;;5092460;28;20207;-41
2021/05/13 00:44:56;;;;;;;19.00;17.20;;;11.30;99.90;;;;;;5092593;28;20290;-41
2021/05/13 00:47:25;;;;;;;19.15;17.30;;;11.20;99.90;;;;;;5092875;28;20290;-40
2021/05/13 00:49:54;;;;;;;18.15;16.25;;;11.20;99.90;;;;;;5092448;28;20639;-41
2021/05/13 00:52:23;;;;;;;18.40;16.60;;;11.20;99.90;;;;;;5092467;28;20214;-41
2021/05/13 00:54:51;;;;;;;18.63;16.83;;;11.20;99.90;;;;;;5092361;28;20238;-40
2021/05/13 00:57:19;;;;;;;18.73;16.60;;;11.20;99.90;;;;;;5092326;28;20301;-41
2021/05/13 00:59:49;;;;;;;19.08;17.20;;;11.10;99.90;;;;;;5092641;28;20363;-40
2021/05/13 01:02:16;;;;;;;19.83;16.58;;;11.10;99.90;;;;;;5092539;28;20252;-41
2021/05/13 01:04:44;;;;;;;18.98;17.05;;;11.10;99.90;;;;;;5092346;28;20297;-40
2021/05/13 01:07:12;;;;;;;18.52;15.65;;;11.00;99.90;;;;;;5092445;28;20711;-40
2021/05/13 01:09:39;;;;;;;17.90;16.10;;;11.00;99.90;;;;;;5092313;28;20294;-41
2021/05/13 01:12:10;;;;;;;17.55;15.80;;;10.90;99.90;;;;;;5092389;28;20289;-41
2021/05/13 01:14:40;;;;;;;18.48;16.67;;;10.80;99.90;;;;;;5092363;28;20234;-40
2021/05/13 01:17:23;;;;;;;19.30;17.30;;;10.80;99.90;;;;;;5092349;28;20628;-41
2021/05/13 01:19:53;;;;;;;18.77;16.90;;;10.80;99.90;;;;;;5092063;28;20701;-41
2021/05/13 01:22:23;;;;;;;18.65;16.88;;;10.70;99.90;;;;;;5091999;28;20210;-41
2021/05/13 01:24:52;;;;;;;19.92;17.88;;;10.70;99.90;;;;;;5091445;28;20245;-40
2021/05/13 01:27:20;;;;;;;20.55;18.08;;;10.70;99.90;;;;;;5091869;28;20207;-40
2021/05/13 01:29:50;;;;;;;19.73;17.73;;;10.70;99.90;;;;;;5091947;28;20234;-40
2021/05/13 01:32:19;;;;;;;19.48;17.58;;;10.70;99.90;;;;;;5091874;28;20223;-40
2021/05/13 01:34:47;;;;;;;19.00;17.10;;;10.60;99.90;;;;;;5091681;28;20206;-40
2021/05/13 01:37:14;;;;;;;19.02;17.33;;;10.60;99.90;;;;;;5091699;28;20232;-40
2021/05/13 01:39:43;;;;;;;20.05;17.95;;;10.60;99.90;;;;;;5091736;28;20266;-40
2021/05/13 01:42:14;;;;;;;19.17;17.17;;;10.60;99.90;;;;;;5091664;28;20309;-40
2021/05/13 01:44:43;;;;;;;19.40;17.48;;;10.60;99.90;;;;;;5091818;28;20268;-40
2021/05/13 01:47:11;;;;;;;19.90;17.38;;;10.60;99.90;;;;;;5091571;28;20234;-41
2021/05/13 01:49:39;;;;;;;19.02;17.15;;;10.60;99.90;;;;;;5091550;28;20632;-40
2021/05/13 01:52:07;;;;;;;20.63;18.52;;;10.60;99.90;;;;;;5091570;28;20252;-41
2021/05/13 01:54:34;;;;;;;19.17;16.02;;;10.50;99.90;;;;;;5091641;28;20576;-41
2021/05/13 01:57:04;;;;;;;18.90;17.10;;;10.50;99.90;;;;;;5091774;28;20242;-44
2021/05/13 01:59:32;;;;;;;19.63;17.35;;;10.50;99.90;;;;;;5091481;28;20219;-41
2021/05/13 02:02:00;;;;;;;19.67;17.67;;;10.50;99.90;;;;;;5091695;28;20238;-41
2021/05/13 02:04:28;;;;;;;18.92;17.00;;;10.50;99.90;;;;;;5091701;28;20210;-40
2021/05/13 02:06:55;;;;;;;19.70;17.60;;;10.40;99.90;;;;;;5091765;28;20473;-40
2021/05/13 02:09:24;;;;;;;18.65;16.75;;;10.40;99.90;;;;;;5091263;28;20203;-40
2021/05/13 02:11:52;;;;;;;18.08;16.27;;;10.40;99.90;;;;;;5091654;28;20210;-40
2021/05/13 02:14:20;;;;;;;18.55;16.73;;;10.40;99.90;;;;;;5091653;28;20206;-40
2021/05/13 02:16:47;;;;;;;19.33;17.40;;;10.30;99.90;;;;;;5091356;28;20275;-41
2021/05/13 02:19:15;;;;;;;20.20;18.13;;;10.30;99.90;;;;;;5091461;28;20688;-41
2021/05/13 02:21:45;;;;;;;20.15;18.05;;;10.30;99.90;;;;;;5092004;28;20242;-40
2021/05/13 02:24:12;;;;;;;21.00;18.80;;;10.30;99.90;;;;;;5091261;28;20240;-40
2021/05/13 02:26:40;;;;;;;20.98;18.85;;;10.30;99.90;;;;;;5091259;28;20302;-40
2021/05/13 02:29:08;;;;;;;20.70;18.67;;;10.30;99.90;;;;;;5091221;28;20207;-40
2021/05/13 02:31:36;;;;;;;19.30;17.45;;;10.30;99.90;;;;;;5091354;28;20206;-40
2021/05/13 02:34:04;;;;;;;20.48;18.23;;;10.30;99.90;;;;;;5091187;28;20572;-41
2021/05/13 02:36:31;;;;;;;19.90;17.90;;;10.30;99.90;;;;;;5093917;28;20293;-42
2021/05/13 02:38:59;;;;;;;19.98;17.60;;;10.30;99.90;;;;;;5094663;28;20590;-40
2021/05/13 02:41:27;;;;;;;20.20;18.20;;;10.30;99.90;;;;;;5094713;28;20303;-41
2021/05/13 02:43:55;;;;;;;21.00;19.00;;;10.30;99.90;;;;;;5094977;28;20207;-44
2021/05/13 02:46:22;;;;;;;19.92;17.83;;;10.30;99.90;;;;;;5094915;28;20260;-41
2021/05/13 02:48:50;;;;;;;19.08;17.10;;;10.30;99.90;;;;;;5094921;28;20253;-40
2021/05/13 02:51:18;;;;;;;21.10;18.98;;;10.30;99.90;;;;;;5094858;28;20294;-41
2021/05/13 02:53:46;;;;;;;21.73;18.63;;;10.30;99.90;;;;;;5094757;28;20674;-40
2021/05/13 02:56:13;;;;;;;20.40;18.40;;;10.40;99.90;;;;;;5095157;28;20751;-39
2021/05/13 02:58:42;;;;;;;22.38;19.10;;;10.40;99.90;;;;;;5094507;28;20230;-39
2021/05/13 03:01:21;;;;;;;18.85;17.05;;;10.40;99.90;;;;;;5094676;28;20287;-39
2021/05/13 03:03:50;;;;;;;19.42;16.80;;;10.40;99.90;;;;;;5094816;28;20206;-39
2021/05/13 03:06:17;;;;;;;19.83;17.70;;;10.40;99.90;;;;;;5094269;28;20254;-39
2021/05/13 03:08:46;;;;;;;18.33;16.25;;;10.40;99.90;;;;;;5094619;28;20601;-39
2021/05/13 03:11:13;;;;;;;19.20;17.40;;;10.40;99.90;;;;;;5094481;28;20289;-39
2021/05/13 03:13:41;;;;;;;19.17;17.27;;;10.50;99.90;;;;;;5094623;28;20272;-39
2021/05/13 03:16:08;;;;;;;19.73;17.83;;;10.50;99.90;;;;;;5094485;28;20217;-39
2021/05/13 03:18:36;;;;;;;20.00;18.00;;;10.50;99.90;;;;;;5094376;28;20202;-39
2021/05/13 03:21:09;;;;;;;19.83;17.85;;;10.50;99.90;;;;;;5094008;28;20313;-39
2021/05/13 03:23:45;;;;;;;18.58;16.50;;;10.60;99.90;;;;;;5093997;28;20742;-39
2021/05/13 03:26:15;;;;;;;21.25;19.10;;;10.60;99.90;;;;;;5094753;28;20744;-39
2021/05/13 03:28:42;;;;;;;19.65;17.75;;;10.60;99.90;;;;;;5094521;28;20298;-39
2021/05/13 03:31:09;;;;;;;22.30;19.15;;;10.60;99.90;;;;;;5094767;28;20302;-39
2021/05/13 03:33:37;;;;;;;20.02;18.13;;;10.70;99.90;;;;;;5093804;28;20213;-39
2021/05/13 03:36:06;;;;;;;20.55;18.35;;;10.70;99.90;;;;;;5094162;28;20352;-39
2021/05/13 03:38:33;;;;;;;21.15;19.05;;;10.70;99.90;;;;;;5093270;28;20215;-40
2021/05/13 03:41:01;;;;;;;20.02;18.02;;;10.70;99.90;;;;;;5093774;28;20705;-39
2021/05/13 03:43:28;;;;;;;18.73;16.85;;;10.80;99.90;;;;;;5093883;28;20214;-40
2021/05/13 03:45:55;;;;;;;21.80;18.05;;;10.80;99.90;;;;;;5093461;28;20524;-39
2021/05/13 03:48:23;;;;;;;20.90;18.90;;;10.80;99.90;;;;;;5093634;28;20209;-39
2021/05/13 03:50:50;;;;;;;20.65;18.35;;;10.80;99.90;;;;;;5093931;28;20297;-48
2021/05/13 03:53:19;;;;;;;20.48;18.20;;;10.80;99.90;;;;;;5093641;28;20233;-40
2021/05/13 03:55:50;;;;;;;20.95;18.85;;;10.80;99.90;;;;;;5093558;28;20313;-39
2021/05/13 03:58:19;;;;;;;20.48;18.48;;;10.80;99.90;;;;;;5093607;28;20256;-39
2021/05/13 04:01:00;;;;;;;21.55;19.25;;;10.80;99.90;;;;;;5093276;28;20230;-39
2021/05/13 04:03:28;;;;;;;19.67;17.77;;;10.80;99.90;;;;;;5093132;28;20742;-39
2021/05/13 04:05:56;;;;;;;20.27;18.30;;;10.80;99.90;;;;;;5093292;28;20257;-40
2021/05/13 04:08:24;;;;;;;19.60;17.65;;;10.80;99.90;;;;;;5093153;28;20257;-40
2021/05/13 04:10:52;;;;;;;20.23;18.05;;;10.80;99.90;;;;;;5093174;28;20662;-39
2021/05/13 04:13:20;;;;;;;21.05;18.75;;;10.80;99.90;;;;;;5093810;28;20241;-40
2021/05/13 04:15:52;;;;;;;19.45;17.55;;;10.80;99.90;;;;;;5093392;28;20297;-40
2021/05/13 04:18:20;;;;;;;22.80;18.05;;;10.80;99.90;;;;;;5093640;28;20653;-39
2021/05/13 04:20:49;;;;;;;19.65;17.42;;;10.80;99.90;;;;;;5093335;28;20560;-40
2021/05/13 04:23:16;;;;;;;19.52;17.55;;;10.90;99.90;;;;;;5093189;28;20240;-40
2021/05/13 04:25:45;;;;;;;20.05;17.92;;;10.80;99.90;;;;;;5092800;28;20669;-39
2021/05/13 04:28:12;;;;;;;19.27;17.58;;;10.80;99.90;;;;;;5093604;28;20297;-40
2021/05/13 04:30:40;;;;;;;19.52;17.63;;;10.80;99.90;;;;;;5093251;28;20297;-39
2021/05/13 04:33:07;;;;;;;20.30;18.30;;;10.80;99.90;;;;;;5092931;28;20202;-39
2021/05/13 04:35:35;;;;;;;20.60;18.63;;;10.90;99.90;;;;;;5092899;28;20203;-39
2021/05/13 04:38:03;;;;;;;19.67;17.67;;;10.90;99.90;;;;;;5092469;28;20553;-39
2021/05/13 04:40:30;;;;;;;21.45;18.85;;;10.90;99.90;;;;;;5092365;28;20324;-40
2021/05/13 04:42:59;;;;;;;19.33;17.50;;;10.90;99.90;;;;;;5092897;28;20214;-40
2021/05/13 04:45:27;;;;;;;19.35;17.45;;;11.00;99.90;;;;;;5092185;28;20543;-39
2021/05/13 04:48:06;;;;;;;20.20;18.00;;;11.00;99.90;;;;;;5093214;28;20278;-40
2021/05/13 04:50:37;;;;;;;19.75;17.83;;;11.00;99.90;;;;;;5092737;28;20256;-39
2021/05/13 04:53:08;;;;;;;18.88;16.88;;;11.10;99.90;;;;;;5092242;28;20213;-40
2021/05/13 04:55:36;;;;;;;19.20;17.30;;;11.10;99.90;;;;;;5092531;28;20267;-39
2021/05/13 04:58:05;;;;;;;18.73;17.00;;;11.20;99.90;;;;;;5091461;28;20739;-39
2021/05/13 05:00:33;;;;;;;18.77;16.73;;;11.20;99.90;;;;;;5092239;28;20317;-39
2021/05/13 05:03:01;;;;;;;17.42;15.73;;;11.20;99.90;;;;;;5092187;28;20567;-39
2021/05/13 05:05:29;;;;;;;17.33;15.68;;;11.30;99.90;;;;;;5092545;28;20673;-39
2021/05/13 05:07:57;;;;;;;17.27;15.68;;;11.30;99.90;;;;;;5092025;28;20242;-39
2021/05/13 05:10:24;;;;;;;18.67;17.02;;;11.30;99.90;;;;;;5092239;28;20301;-39
2021/05/13 05:12:52;;;;;;;17.83;16.15;;;11.40;99.90;;;;;;5092618;28;20218;-42
2021/05/13 05:15:20;;;;;;;17.50;15.85;;;11.40;99.90;;;;;;5092167;28;20268;-40
2021/05/13 05:17:48;;;;;;;19.05;17.00;;;11.50;99.90;;;;;;5091898;28;20210;-42
2021/05/13 05:20:15;;;;;;;18.70;16.80;;;11.40;99.90;;;;;;5091670;28;20657;-41
2021/05/13 05:22:43;;;;;;;19.00;17.00;;;11.50;99.90;;;;;;5091972;28;20279;-41
2021/05/13 05:25:11;;;;;;;19.17;17.25;;;11.50;99.90;;;;;;5091781;28;20351;-40
2021/05/13 05:27:38;;;;;;;19.08;17.17;;;11.50;99.90;;;;;;5091353;28;20264;-41
2021/05/13 05:30:07;;;;;;;17.90;16.08;;;11.50;99.90;;;;;;5091443;28;20235;-43
2021/05/13 05:32:35;;;;;;;17.50;15.68;;;11.50;99.90;;;;;;5091816;28;20293;-41
2021/05/13 05:35:08;;;;;;;18.58;16.70;;;11.60;99.90;;;;;;5091532;28;20568;-39
2021/05/13 05:37:35;;;;;;;16.10;14.40;;;11.60;99.90;;;;;;5091667;28;20253;-39
2021/05/13 05:40:05;;;;;;;16.58;14.85;;;11.60;99.90;;;;;;5091284;28;20223;-41
2021/05/13 05:42:32;;;;;;;16.10;14.55;;;11.70;99.90;;;;;;5091324;28;20351;-41
2021/05/13 05:45:00;;;;;;;16.30;14.55;;;11.70;99.90;;;;;;5091541;28;20756;-41
2021/05/13 05:47:28;;;;;;;17.60;15.88;;;11.70;99.90;;;;;;5091770;28;20302;-41
2021/05/13 05:49:56;;;;;;;18.33;16.63;;;11.70;99.90;;;;;;5091471;28;20238;-42
2021/05/13 05:52:23;;;;;;;16.52;14.98;;;11.80;99.90;;;;;;5091464;28;20238;-41
2021/05/13 05:54:51;;;;;;;16.35;14.77;;;11.80;99.90;;;;;;5091541;28;20207;-41
2021/05/13 05:57:18;;;;;;;16.23;14.27;;;11.90;99.90;;;;;;5091450;28;20234;-40
2021/05/13 05:59:46;;;;;;;16.75;15.25;;;12.00;99.90;;;;;;5091698;28;20297;-41
2021/05/13 06:02:13;;;;;;;16.25;13.88;;;12.00;99.90;;;;;;5091488;28;20257;-41
2021/05/13 06:04:41;;;;;;;16.17;14.48;;;12.10;99.90;;;;;;5091517;28;20206;-41
2021/05/13 06:07:09;;;;;;;17.55;15.82;;;12.10;99.90;;;;;;5091607;28;20301;-39
2021/05/13 06:09:36;;;;;;;17.70;15.85;;;12.20;99.90;;;;;;5092659;28;20247;-39
2021/05/13 06:12:05;;;;;;;24.75;18.70;;;12.20;99.90;;;;;;5095529;28;20203;-40
2021/05/13 06:14:32;;;;;;;18.17;16.38;;;12.20;99.90;;;;;;5095081;28;20203;-40
2021/05/13 06:17:00;;;;;;;18.55;15.63;;;12.20;99.90;;;;;;5095226;28;20207;-40
2021/05/13 06:19:28;;;;;;;16.95;15.25;;;12.10;99.90;;;;;;5095181;28;20210;-41
2021/05/13 06:21:56;;;;;;;18.40;16.60;;;12.10;99.90;;;;;;5095033;28;20661;-40
2021/05/13 06:24:25;;;;;;;17.67;15.80;;;12.00;99.90;;;;;;5095045;28;20624;-41
2021/05/13 06:26:56;;;;;;;18.55;15.55;;;12.00;99.90;;;;;;5095206;28;20273;-39
2021/05/13 06:29:29;;;;;;;18.40;16.50;;;12.00;99.90;;;;;;5095272;28;20213;-42
2021/05/13 06:31:57;;;;;;;22.33;17.90;;;12.10;99.90;;;;;;5095498;28;20252;-41
2021/05/13 06:34:28;;;;;;;21.75;18.90;;;12.10;99.90;;;;;;5094970;28;20206;-42
2021/05/13 06:36:57;;;;;;;22.75;19.42;;;12.10;99.90;;;;;;5094812;28;20660;-41
2021/05/13 06:39:26;;;;;;;25.45;18.40;;;12.20;99.90;;;;;;5094772;28;20653;-40
2021/05/13 06:41:54;;;;;;;19.48;17.40;;;12.40;99.90;;;;;;5094704;28;20230;-41
2021/05/13 06:44:21;;;;;;;22.92;17.55;;;12.50;99.90;;;;;;5094867;28;20367;-41
2021/05/13 06:46:48;;;;;;;18.65;16.80;;;12.60;99.90;;;;;;5094701;28;20677;-41
2021/05/13 06:49:17;;;;;;;22.95;18.30;;;12.70;99.90;;;;;;5094680;28;20206;-40
2021/05/13 06:51:45;;;;;;;19.27;17.27;;;12.80;99.90;;;;;;5094817;28;20202;-43
2021/05/13 06:54:13;;;;;;;19.55;17.67;;;12.70;99.90;;;;;;5094790;28;20206;-43
2021/05/13 06:56:42;;;;;;;21.38;19.20;;;12.80;99.90;;;;;;5094538;28;20217;-42
2021/05/13 06:59:10;;;;;;;19.80;17.80;;;12.90;99.90;;;;;;5095015;28;20283;-41
2021/05/13 07:01:37;;;;;;;19.90;17.33;;;13.10;99.90;;;;;;5094441;28;20227;-42
2021/05/13 07:04:05;;;;;;;18.83;16.92;;;13.20;99.90;;;;;;5094488;28;20668;-42
2021/05/13 07:06:34;;;;;;;18.80;16.80;;;13.30;99.90;;;;;;5094821;28;20267;-44
2021/05/13 07:09:01;;;;;;;18.38;16.55;;;13.30;99.90;;;;;;5094700;28;20215;-41
2021/05/13 07:11:29;;;;;;;19.50;15.60;;;13.40;99.90;;;;;;5093355;28;20294;-40
2021/05/13 07:13:57;;;;;;;17.73;15.90;;;13.50;99.90;;;;;;5094361;28;20676;-40
2021/05/13 07:16:25;;;;;;;20.55;16.60;;;13.60;99.90;;;;;;5094013;28;20234;-40
2021/05/13 07:18:53;;;;;;;18.08;16.17;;;13.70;99.90;;;;;;5094577;28;20209;-40
2021/05/13 07:21:21;;;;;;;19.15;17.17;;;13.80;99.90;;;;;;5093591;28;20230;-40
2021/05/13 07:23:48;;;;;;;18.77;16.88;;;13.90;99.90;;;;;;5094463;28;20230;-40
2021/05/13 07:26:16;;;;;;;17.38;15.77;;;14.10;99.90;;;;;;5094215;28;20666;-39
2021/05/13 07:28:44;;;;;;;18.08;15.85;;;14.20;99.90;;;;;;5094069;28;20337;-39
2021/05/13 07:31:13;;;;;;;17.27;15.20;;;14.40;99.90;;;;;;5094155;28;20299;-40
2021/05/13 07:33:41;;;;;;;17.80;16.02;;;14.50;99.90;;;;;;5094139;28;20271;-40
2021/05/13 07:36:09;;;;;;;14.50;13.10;;;14.60;99.90;;;;;;5094081;28;20241;-40
2021/05/13 07:38:36;;;;;;;16.95;15.23;;;14.60;99.90;;;;;;5093902;28;20294;-41
2021/05/13 07:41:06;;;;;;;17.23;15.40;;;14.80;99.90;;;;;;5093789;28;20258;-42
2021/05/13 07:43:35;;;;;;;15.52;14.00;;;15.00;99.90;;;;;;5093738;28;20246;-39
2021/05/13 07:46:02;;;;;;;15.65;14.05;;;15.20;99.90;;;;;;5094024;28;20206;-43
2021/05/13 07:48:32;;;;;;;16.55;15.02;;;15.40;99.90;;;;;;5093647;28;20210;-38
2021/05/13 07:50:59;;;;;;;16.65;15.05;;;15.60;99.90;;;;;;5093453;28;20238;-41
2021/05/13 07:53:27;;;;;;;16.15;14.50;;;15.70;99.90;;;;;;5093749;28;20246;-39
2021/05/13 07:55:55;;;;;;;15.50;14.00;;;15.70;99.90;;;;;;5093459;28;20289;-39
2021/05/13 07:58:22;;;;;;;14.00;12.55;;;15.70;99.90;;;;;;5093808;28;20313;-39
2021/05/13 08:00:50;;;;;;;11.18;10.05;;;15.70;99.90;;;;;;5093255;28;20770;-39
2021/05/13 08:03:18;;;;;;;10.50;9.57;;;15.70;99.90;;;;;;5093347;28;20328;-40
2021/05/13 08:05:46;;;;;;;12.73;9.77;;;15.60;99.90;;;;;;5093016;28;20298;-43
2021/05/13 08:08:14;;;;;;;11.05;9.70;;;15.50;99.90;;;;;;5093039;28;20309;-40
2021/05/13 08:10:41;;;;;;;9.45;8.55;;;15.40;99.90;;;;;;5093042;28;20302;-39
2021/05/13 08:13:09;;;;;;;11.70;9.82;;;15.40;99.90;;;;;;5093147;28;20707;-40
2021/05/13 08:15:36;;;;;;;16.92;9.75;;;15.50;99.90;;;;;;5093443;28;20210;-41
2021/05/13 08:18:04;;;;;;;11.73;10.52;;;15.60;99.90;;;;;;5093089;28;20269;-40
2021/05/13 08:20:33;;;;;;;9.77;8.85;;;15.70;99.90;;;;;;5092933;28;20203;-44
2021/05/13 08:23:01;;;;;;;10.50;9.35;;;15.80;99.90;;;;;;5092846;28;20293;-43
2021/05/13 08:25:29;;;;;;;11.50;8.95;;;15.90;99.90;;;;;;5092678;28;20273;-44
2021/05/13 08:27:56;;;;;;;12.88;9.52;;;16.00;99.90;;;;;;5092966;28;20324;-46
2021/05/13 08:30:24;;;;;;;9.75;8.77;;;16.00;99.90;;;;;;5093128;28;20206;-42
2021/05/13 08:32:51;;;;;;;10.75;9.52;;;15.90;99.90;;;;;;5092348;28;20373;-43
2021/05/13 08:35:19;;;;;;;13.57;10.85;;;15.90;99.90;;;;;;5093038;28;20669;-43
2021/05/13 08:37:46;;;;;;;10.88;9.18;;;15.90;99.90;;;;;;5092798;28;20542;-41
2021/05/13 08:40:15;;;;;;;10.75;9.15;;;15.90;99.90;;;;;;5093059;28;20301;-45
2021/05/13 08:42:42;;;;;;;10.15;8.90;;;16.10;99.90;;;;;;5092791;28;20309;-44
2021/05/13 08:45:11;;;;;;;9.32;7.93;;;16.30;99.90;;;;;;5092838;28;20230;-42
2021/05/13 08:47:41;;;;;;;9.15;8.25;;;16.40;99.90;;;;;;5092348;28;20238;-43
2021/05/13 08:50:09;;;;;;;9.55;8.65;;;16.40;99.90;;;;;;5092618;28;20260;-42
2021/05/13 08:52:37;;;;;;;10.32;9.30;;;16.50;99.90;;;;;;5093525;28;20225;-40
2021/05/13 08:55:06;;;;;;;8.25;7.40;;;16.70;99.90;;;;;;5093022;28;20274;-40
2021/05/13 08:57:38;;;;;;;10.18;6.90;;;16.90;99.90;;;;;;5093991;28;20278;-40
2021/05/13 09:00:08;;;;;;;8.55;7.75;;;16.90;99.90;;;;;;5097628;28;20213;-40
2021/05/13 09:02:36;;;;;;;8.80;7.95;;;17.00;99.90;;;;;;5094523;28;20254;-40
2021/05/13 09:05:09;;;;;;;8.15;7.45;;;17.10;99.90;;;;;;5092967;28;20211;-40
2021/05/13 09:07:37;;;;;;;7.35;6.65;;;17.10;99.70;;;;;;5092399;28;20695;-40
2021/05/13 09:10:07;;;;;;;10.82;7.43;;;17.00;99.70;;;;;;5092579;28;20250;-45
2021/05/13 09:12:39;;;;;;;7.82;7.13;;;17.00;99.70;;;;;;5093310;28;20272;-40
2021/05/13 09:15:10;;;;;;;8.95;7.63;;;17.00;99.40;;;;;;5092613;28;20228;-43
2021/05/13 09:17:39;;;;;;;8.00;7.20;;;16.80;99.60;;;;;;5093264;28;20298;-44
2021/05/13 09:20:23;;;;;;;9.73;7.47;;;16.70;99.70;;;;;;5094557;28;20297;-43
2021/05/13 09:22:52;;;;;;;7.18;6.55;;;16.70;99.60;;;;;;5092771;28;20230;-43
2021/05/13 09:25:27;;;;;;;5.85;5.32;;;16.80;99.30;;;;;;5093271;28;20231;-42
2021/05/13 09:27:56;;;;;;;9.73;6.68;;;16.80;98.80;;;;;;5093099;28;20241;-40
2021/05/13 09:30:29;;;;;;;6.70;5.72;;;16.80;99.00;;;;;;5095465;28;20233;-41
2021/05/13 09:32:59;;;;;;;6.80;6.20;;;17.00;98.70;;;;;;5093071;28;20672;-44
2021/05/13 09:35:29;;;;;;;7.35;4.40;;;17.20;98.30;;;;;;5092574;28;20741;-44
2021/05/13 09:37:58;;;;;;;4.93;4.18;;;17.40;97.80;;;;;;5092094;28;20384;-46
2021/05/13 09:40:34;;;;;;;5.35;4.85;;;17.60;97.00;;;;;;5091566;28;20263;-45
2021/05/13 09:43:14;;;;;;;6.90;5.10;;;17.60;96.00;;;;;;5092118;28;20777;-43
2021/05/13 09:45:45;;;;;;;6.07;5.10;;;17.60;96.40;;;;;;5091329;28;20263;-45
2021/05/13 09:48:33;;;;;;;8.13;5.03;;;17.70;96.60;;;;;;5092235;28;20243;-49
2021/05/13 09:51:15;;;;;;;4.88;4.38;;;17.70;95.60;;;;;;5091462;28;20261;-45
2021/05/13 09:53:43;;;;;;;4.93;4.15;;;17.60;95.40;;;;;;5092089;28;20260;-43
2021/05/13 09:56:27;;;;;;;4.90;4.25;;;17.50;95.70;;;;;;5091799;28;20206;-48
2021/05/13 09:58:57;;;;;;;4.78;4.38;;;17.50;95.50;;;;;;5091819;28;20310;-48
2021/05/13 10:01:35;;;;;;;4.78;4.28;;;17.60;95.50;;;;;;5092070;28;20324;-45
2021/05/13 10:04:06;;;;;;;5.70;4.30;;;17.90;95.00;;;;;;5092160;28;20369;-41
2021/05/13 10:06:34;;;;;;;5.00;4.22;;;18.00;94.50;;;;;;5091863;28;20594;-40
2021/05/13 10:09:04;;;;;;;4.95;4.22;;;18.20;94.40;;;;;;5091860;28;20221;-40
2021/05/13 10:11:32;;;;;;;8.30;4.70;;;18.30;94.10;;;;;;5093170;28;20258;-44
2021/05/13 10:14:01;;;;;;;4.82;4.25;;;18.40;94.10;;;;;;5092227;28;20206;-41
2021/05/13 10:16:29;;;;;;;3.83;3.40;;;18.40;93.90;;;;;;5091900;28;20210;-39
2021/05/13 10:19:00;;;;;;;4.47;3.70;;;18.50;93.60;;;;;;5091668;28;20210;-39
2021/05/13 10:21:31;;;;;;;4.43;3.65;;;18.40;93.40;;;;;;5091942;28;20219;-39
2021/05/13 10:23:59;;;;;;;3.70;3.40;;;18.50;92.90;;;;;;5091539;28;20239;-39
2021/05/13 10:26:44;;;;;;;3.92;3.50;;;18.60;92.60;;;;;;5091377;28;20244;-40
2021/05/13 10:29:35;;;;;;;4.32;3.03;;;18.70;91.80;;;;;;5091738;28;20265;-40
2021/05/13 10:32:10;;;;;;;4.22;3.00;;;18.70;91.60;;;;;;5091134;28;20249;-40
2021/05/13 10:34:54;;;;;;;4.88;2.53;;;18.70;91.40;;;;;;5091363;28;20213;-44
2021/05/13 10:37:31;;;;;;;3.08;2.78;;;18.70;91.20;;;;;;5090906;28;20738;-40
2021/05/13 10:40:48;;;;;;;4.13;2.92;;;18.50;90.70;;;;;;5092545;28;20263;-40
2021/05/13 10:43:16;;;;;;;6.18;3.45;;;18.30;90.10;;;;;;5090945;28;20688;-39
2021/05/13 10:45:45;;;;;;;6.00;3.28;;;17.90;91.90;;;;;;5091193;28;20241;-39
2021/05/13 10:48:21;;;;;;;4.95;3.25;;;17.70;92.40;;;;;;5091161;28;20244;-39
2021/05/13 10:50:51;;;;;;;4.18;3.42;;;17.60;92.60;;;;;;5091891;28;20240;-41
2021/05/13 10:53:41;;;;;;;6.35;3.90;;;17.70;92.80;;;;;;5091221;28;20310;-42
2021/05/13 10:56:23;;;;;;;4.20;2.53;;;17.90;92.60;;;;;;5091713;28;20283;-41
2021/05/13 10:58:57;;;;;;;3.08;2.67;;;18.00;92.40;;;;;;5094832;28;20233;-44
2021/05/13 11:01:44;;;;;;;3.20;2.90;;;18.20;92.00;;;;;;5094295;28;20210;-44
2021/05/13 11:04:34;;;;;;;3.63;2.63;;;18.40;91.50;;;;;;5094483;28;20211;-43
2021/05/13 11:07:04;;;;;;;2.72;2.53;;;18.60;91.30;;;;;;5094425;28;20680;-43
2021/05/13 11:09:51;;;;;;;3.40;3.10;;;18.70;91.00;;;;;;5094224;28;20233;-42
2021/05/13 11:12:19;;;;;;;4.43;2.53;;;19.00;90.10;;;;;;5094361;28;20613;-42
2021/05/13 11:15:10;;;;;;;3.40;2.50;;;19.30;89.70;;;;;;5094494;28;20225;-41
2021/05/13 11:18:12;;;;;;;3.35;3.05;;;19.70;87.60;;;;;;5094352;28;20246;-41
2021/05/13 11:20:50;;;;;;;4.13;2.45;;;20.00;87.20;;;;;;5094218;28;20259;-42
2021/05/13 11:23:24;;;;;;;5.05;2.53;;;20.40;86.30;;;;;;5094251;28;20669;-42
2021/05/13 11:25:54;;;;;;;4.18;2.47;;;20.70;84.70;;;;;;5093918;28;20309;-42
2021/05/13 11:28:33;;;;;;;2.65;2.38;;;20.60;83.90;;;;;;5093635;28;20653;-41
2021/05/13 11:31:18;;;;;;;3.10;2.67;;;20.30;84.40;;;;;;5093752;28;20669;-41
2021/05/13 11:33:48;;;;;;;5.40;4.82;;;19.70;84.70;;;;;;5093647;28;20202;-41
2021/05/13 11:36:17;;;;;;;4.57;3.53;;;19.10;87.00;;;;;;5093789;28;20260;-42
2021/05/13 11:38:49;;;;;;;2.88;2.30;;;18.60;89.90;;;;;;5093780;28;20674;-41
2021/05/13 11:41:17;;;;;;;1.30;1.20;;;17.80;90.90;;;;;;5093671;28;20259;-40
2021/05/13 11:43:46;;;;;;;4.38;1.77;;;17.10;91.70;;;;;;5093882;28;20227;-36
2021/05/13 11:46:18;;;;;;;2.33;1.33;;;16.60;92.30;;;;;;5093637;28;20629;-42
2021/05/13 11:48:47;;;;;;;4.72;2.55;;;16.10;92.90;;;;;;5093395;28;20243;-41
2021/05/13 11:51:17;;;;;;;2.15;1.20;;;15.80;94.00;;;;;;5094327;28;20238;-42
2021/05/13 11:53:46;;;;;;;1.55;1.45;;;15.60;94.80;;;;;;5093922;28;20211;-41
2021/05/13 11:56:15;;;;;;;3.97;1.55;;;15.40;95.60;;;;;;5094414;28;20206;-40
2021/05/13 11:58:47;;;;;;;1.50;1.40;;;15.20;96.20;;;;;;5093563;28;20249;-40
2021/05/13 12:01:20;;;;;;;3.70;2.75;;;15.10;96.50;;;;;;5093498;28;20240;-40
2021/05/13 12:03:51;;;;;;;3.53;2.20;;;15.00;96.90;;;;;;5093305;28;20226;-41
2021/05/13 12:06:18;;;;;;;3.00;1.40;;;14.90;97.20;;;;;;5093665;28;20673;-41
2021/05/13 12:08:46;;;;;;;3.42;2.38;;;14.80;97.40;;;;;;5093554;28;20211;-40
2021/05/13 12:11:19;;;;;;;3.50;2.90;;;14.90;97.50;;;;;;5093624;28;20687;-40
2021/05/13 12:13:47;;;;;;;2.13;1.63;;;14.90;98.00;;;;;;5093474;28;20260;-40
2021/05/13 12:16:15;;;;;;;2.42;2.22;;;15.10;98.40;;;;;;5093197;28;20210;-40
2021/05/13 12:18:44;;;;;;;3.55;2.30;;;15.10;98.60;;;;;;5093317;28;20576;-40
2021/05/13 12:21:15;;;;;;;3.05;2.22;;;15.20;99.10;;;;;;5093224;28;20294;-40
2021/05/13 12:23:45;;;;;;;3.67;2.45;;;15.30;99.20;;;;;;5092831;28;20246;-40
2021/05/13 12:26:21;;;;;;;3.78;2.95;;;15.30;99.30;;;;;;5093345;28;20507;-40
2021/05/13 12:28:50;;;;;;;1.90;1.42;;;15.40;99.60;;;;;;5093033;28;20289;-40
2021/05/13 12:31:26;;;;;;;3.53;1.90;;;15.30;99.30;;;;;;5093265;28;20294;-42
2021/05/13 12:33:54;;;;;;;3.85;2.65;;;15.30;99.70;;;;;;5093204;28;20289;-40
2021/05/13 12:36:23;;;;;;;2.92;2.70;;;15.30;99.80;;;;;;5093024;28;20210;-41
2021/05/13 12:38:51;;;;;;;5.03;3.30;;;15.50;99.70;;;;;;5092867;28;20234;-41
2021/05/13 12:41:24;;;;;;;2.40;1.88;;;15.70;99.30;;;;;;5092878;28;20207;-40
2021/05/13 12:44:05;;;;;;;7.10;6.32;;;16.00;99.00;;;;;;5092661;28;20654;-40
2021/05/13 12:46:41;;;;;;;3.13;2.80;;;16.30;98.80;;;;;;5092678;28;20206;-40